createdAt,value
2023-03-02T00:00:18.100Z,22.13
2023-03-02T00:10:20.046Z,25.97
2023-03-02T00:20:21.810Z,22.40
2023-03-02T00:30:27.036Z,19.47
2023-03-02T00:40:28.899Z,18.67
2023-03-02T00:50:31.076Z,18.08
2023-03-02T01:00:33.737Z,18.77
2023-03-02T01:10:35.960Z,18.20
2023-03-02T01:20:38.542Z,17.83
2023-03-02T01:30:43.222Z,18.10
2023-03-02T01:40:45.134Z,19.07
2023-03-02T01:50:47.827Z,19.13
2023-03-02T02:00:51.840Z,17.20
2023-03-02T02:10:54.752Z,14.23
2023-03-02T02:20:56.955Z,15.57
2023-03-02T02:31:27.820Z,17.00
2023-03-02T02:41:34.346Z,17.53
2023-03-02T02:51:37.112Z,17.92
2023-03-02T03:01:39.770Z,18.03
2023-03-02T03:11:45.440Z,17.10
2023-03-02T03:21:49.785Z,16.15
2023-03-02T03:31:52.821Z,19.53
2023-03-02T03:41:54.932Z,18.23
2023-03-02T03:51:57.559Z,20.45
2023-03-02T04:02:01.112Z,22.20
2023-03-02T04:12:02.890Z,33.37
2023-03-02T04:22:04.907Z,32.85
2023-03-02T04:32:07.704Z,32.83
2023-03-02T04:42:09.603Z,31.67
2023-03-02T04:52:11.504Z,31.87
2023-03-02T05:02:13.616Z,32.30
2023-03-02T05:12:15.440Z,33.13
2023-03-02T05:22:17.082Z,30.13
2023-03-02T05:32:18.651Z,32.63
2023-03-02T05:42:20.418Z,28.30
2023-03-02T05:52:32.229Z,29.53
2023-03-02T06:02:33.959Z,27.57
2023-03-02T06:12:35.768Z,29.88
2023-03-02T06:22:42.548Z,28.40
2023-03-02T06:32:44.480Z,30.67
2023-03-02T06:42:46.052Z,27.65
2023-03-02T06:52:47.695Z,26.73
2023-03-02T07:02:49.559Z,27.20
2023-03-02T07:12:51.567Z,27.27
2023-03-02T07:22:53.479Z,33.03
2023-03-02T07:32:55.198Z,32.73
2023-03-02T07:42:57.008Z,28.55
2023-03-02T07:53:00.014Z,29.30
2023-03-02T08:03:02.085Z,29.67
2023-03-02T08:13:05.063Z,31.03
2023-03-02T08:23:07.309Z,29.63
2023-03-02T08:33:08.906Z,27.48
2023-03-02T08:43:10.445Z,28.27
2023-03-02T08:53:12.266Z,27.17
2023-03-02T09:03:14.025Z,30.38
2023-03-02T09:13:15.613Z,30.13
2023-03-02T09:23:17.646Z,35.20
2023-03-02T09:33:20.590Z,36.03
2023-03-02T09:43:32.797Z,37.00
2023-03-02T09:53:40.644Z,33.75
2023-03-02T10:03:52.564Z,37.63
2023-03-02T10:14:01.977Z,33.93
2023-03-02T10:24:12.370Z,33.07
2023-03-02T10:34:14.643Z,33.60
2023-03-02T10:44:23.337Z,28.67
2023-03-02T10:54:25.735Z,27.60
2023-03-02T11:04:27.518Z,26.67
2023-03-02T11:14:29.590Z,25.50
2023-03-02T11:24:45.680Z,22.03
2023-03-02T11:34:53.459Z,23.42
2023-03-02T11:44:59.012Z,26.47
2023-03-02T11:55:06.592Z,24.20
2023-03-02T12:05:28.457Z,28.03
2023-03-02T12:15:40.172Z,26.93
2023-03-02T12:25:43.578Z,28.73
2023-03-02T12:35:47.220Z,29.53
2023-03-02T12:46:29.217Z,32.17
2023-03-02T12:56:30.813Z,28.80
2023-03-02T13:06:32.870Z,30.93
2023-03-02T13:16:34.899Z,27.27
2023-03-02T13:26:37.564Z,24.53
2023-03-02T13:36:40.828Z,25.50
2023-03-02T13:46:42.568Z,25.03
2023-03-02T13:56:44.866Z,24.17
2023-03-02T14:06:47.424Z,26.50
2023-03-02T14:16:50.286Z,26.63
2023-03-02T14:26:52.268Z,26.73
2023-03-02T14:36:57.405Z,29.00
2023-03-02T14:46:58.975Z,34.20
2023-03-02T14:57:00.551Z,32.85
2023-03-02T15:07:02.461Z,37.17
2023-03-02T15:17:04.823Z,31.23
2023-03-02T15:27:06.886Z,28.60
2023-03-02T15:37:12.297Z,25.07
2023-03-02T15:47:15.326Z,33.40
2023-03-02T15:57:17.554Z,27.20
2023-03-02T16:07:22.514Z,46.53
2023-03-02T16:17:24.838Z,27.33
2023-03-02T16:27:26.791Z,27.70
2023-03-02T16:37:28.550Z,30.23
2023-03-02T16:47:30.467Z,31.70
2023-03-02T16:57:34.565Z,40.57
2023-03-02T17:07:45.008Z,31.02
2023-03-02T17:18:01.088Z,33.70
2023-03-02T17:28:10.309Z,33.00
2023-03-02T17:38:27.103Z,35.00
2023-03-02T17:48:35.290Z,34.77
2023-03-02T17:58:44.637Z,33.33
2023-03-02T18:08:50.543Z,33.83
2023-03-02T18:18:54.996Z,33.22
2023-03-02T18:29:01.075Z,32.57
2023-03-02T18:39:04.233Z,33.80
2023-03-02T18:49:09.230Z,35.58
2023-03-02T18:59:11.721Z,34.87
2023-03-02T19:09:14.056Z,37.03
2023-03-02T19:19:16.631Z,35.23
2023-03-02T19:29:19.409Z,33.77
2023-03-02T19:39:21.756Z,30.98
2023-03-02T19:49:23.730Z,36.73
2023-03-02T19:59:25.860Z,37.35
2023-03-02T20:09:28.058Z,33.13
2023-03-02T20:19:30.169Z,35.43
2023-03-02T20:29:32.193Z,37.97
2023-03-02T20:39:38.044Z,37.60
2023-03-02T20:49:40.376Z,37.42
2023-03-02T20:59:42.941Z,37.73
2023-03-02T21:09:45.347Z,35.97
2023-03-02T21:19:48.574Z,38.78
2023-03-02T21:29:50.399Z,38.23
2023-03-02T21:39:52.439Z,39.42
2023-03-02T21:49:57.189Z,35.63
2023-03-02T21:59:59.456Z,37.60
2023-03-02T22:10:01.501Z,36.17
2023-03-02T22:20:16.203Z,39.47
2023-03-02T22:30:23.818Z,35.85
2023-03-02T22:40:31.741Z,33.43
2023-03-02T22:50:33.978Z,38.23
2023-03-02T23:00:40.865Z,38.25
2023-03-02T23:10:43.130Z,36.93
2023-03-02T23:20:45.657Z,38.53
2023-03-02T23:30:47.860Z,38.53
2023-03-02T23:40:50.100Z,33.20
2023-03-02T23:50:52.672Z,34.83
